FIN88 ZSPD-EFHK
Flight info
| Callsign | FIN88 |
|---|---|
| Flight time | N/A |
| Altitude | 34100 |
| Route | PIK81D PIKAS G330 PIMOL A593 DALIM W157 BEKDO/K0928S1010 W157 VYK G212 SOTMU/K0917S1040 B339 ASILA A575 UPREK W28 LAGEB W66 NUKTI B215 DUMAM/K0911S1100 B215 KABDO W119 GOBOK A343 RULAD/K0896F360 M610 ARBOL Z621 GENDI N147 OTBOR/N0485F360 A480 TIMGA B476 OGLID/N0488F380 B476 METKA L88 NIJAT N644 TETRO M10 SARPI UM10 GOKPA UL746 ODERO L746 LUGEB DCT KENIN/N0476F400 DCT TOXAR/N0472F390 DCT BOKSU DCT GUNTA DCT SOKVA DCT KEMET Q11 INTOR |
| Aircraft | A359/H-SDE2E3GHIJ1J3J4J5LM1ORWXY/LB1D1 |
Departure
| Time | 2026-05-05 09:15 |
|---|---|
| Airport | Shanghai Pudong International Airport (ZSPD) |
Arrival
| Time | N/A |
|---|---|
| Airport | Helsinki Vantaa Airport (EFHK) |
| Time | Latitude | Longitude | Altitude | Speed | Heading |
|---|---|---|---|---|---|
| 2026-05-05 08:28 | 31.15159 | 121.80812 | 29 ft | 0 kts | 252° |
| 2026-05-05 09:00 | 31.15163 | 121.80824 | 29 ft | 4 kts | 252° |
| 2026-05-05 09:01 | 31.15171 | 121.80854 | 28 ft | 4 kts | 252° |
| 2026-05-05 09:01 | 31.15177 | 121.80876 | 26 ft | 4 kts | 236° |
| 2026-05-05 09:01 | 31.15189 | 121.80891 | 27 ft | 4 kts | 191° |
| 2026-05-05 09:01 | 31.15212 | 121.80891 | 28 ft | 4 kts | 163° |
| 2026-05-05 09:02 | 31.15235 | 121.80882 | 28 ft | 2 kts | 162° |
| 2026-05-05 09:02 | 31.15234 | 121.80883 | 28 ft | 1 kts | 162° |
| 2026-05-05 09:02 | 31.15232 | 121.80883 | 28 ft | 0 kts | 162° |
| 2026-05-05 09:05 | 31.15231 | 121.80884 | 27 ft | 1 kts | 162° |
| 2026-05-05 09:05 | 31.15214 | 121.80890 | 28 ft | 6 kts | 164° |
| 2026-05-05 09:05 | 31.15184 | 121.80928 | 28 ft | 7 kts | 107° |
| 2026-05-05 09:05 | 31.15165 | 121.80938 | 29 ft | 8 kts | 167° |
| 2026-05-05 09:06 | 31.15082 | 121.80943 | 29 ft | 16 kts | 174° |
| 2026-05-05 09:06 | 31.14960 | 121.80986 | 29 ft | 20 kts | 160° |
| 2026-05-05 09:06 | 31.14819 | 121.81038 | 28 ft | 20 kts | 161° |
| 2026-05-05 09:06 | 31.14701 | 121.81083 | 29 ft | 14 kts | 163° |
| 2026-05-05 09:07 | 31.14617 | 121.81116 | 28 ft | 12 kts | 161° |
| 2026-05-05 09:07 | 31.14535 | 121.81148 | 29 ft | 13 kts | 162° |
| 2026-05-05 09:07 | 31.14450 | 121.81149 | 29 ft | 12 kts | 223° |
| 2026-05-05 09:07 | 31.14416 | 121.81064 | 29 ft | 12 kts | 251° |
| 2026-05-05 09:08 | 31.14384 | 121.80952 | 29 ft | 17 kts | 252° |
| 2026-05-05 09:08 | 31.14343 | 121.80803 | 29 ft | 22 kts | 252° |
| 2026-05-05 09:08 | 31.14289 | 121.80608 | 29 ft | 28 kts | 251° |
| 2026-05-05 09:08 | 31.14229 | 121.80396 | 29 ft | 28 kts | 252° |
| 2026-05-05 09:09 | 31.14167 | 121.80175 | 29 ft | 28 kts | 251° |
| 2026-05-05 09:09 | 31.14110 | 121.79961 | 29 ft | 27 kts | 252° |
| 2026-05-05 09:09 | 31.14054 | 121.79758 | 29 ft | 22 kts | 254° |
| 2026-05-05 09:09 | 31.14035 | 121.79638 | 29 ft | 12 kts | 276° |
| 2026-05-05 09:10 | 31.14101 | 121.79583 | 29 ft | 14 kts | 341° |
| 2026-05-05 09:10 | 31.14218 | 121.79538 | 29 ft | 22 kts | 342° |
| 2026-05-05 09:10 | 31.14372 | 121.79479 | 29 ft | 23 kts | 342° |
| 2026-05-05 09:10 | 31.14529 | 121.79420 | 29 ft | 24 kts | 341° |
| 2026-05-05 09:11 | 31.14700 | 121.79355 | 29 ft | 27 kts | 343° |
| 2026-05-05 09:11 | 31.14887 | 121.79285 | 29 ft | 29 kts | 342° |
| 2026-05-05 09:11 | 31.15081 | 121.79212 | 29 ft | 29 kts | 342° |
| 2026-05-05 09:11 | 31.15271 | 121.79140 | 29 ft | 28 kts | 342° |
| 2026-05-05 09:12 | 31.15454 | 121.79071 | 28 ft | 27 kts | 342° |
| 2026-05-05 09:12 | 31.15631 | 121.79005 | 28 ft | 26 kts | 342° |
| 2026-05-05 09:12 | 31.15798 | 121.78941 | 28 ft | 24 kts | 341° |
| 2026-05-05 09:12 | 31.15945 | 121.78885 | 29 ft | 16 kts | 341° |
| 2026-05-05 09:13 | 31.16036 | 121.78850 | 29 ft | 13 kts | 342° |
| 2026-05-05 09:13 | 31.16112 | 121.78821 | 29 ft | 11 kts | 342° |
| 2026-05-05 09:13 | 31.16146 | 121.78766 | 29 ft | 8 kts | 276° |
| 2026-05-05 09:13 | 31.16137 | 121.78711 | 29 ft | 6 kts | 255° |
| 2026-05-05 09:14 | 31.16124 | 121.78658 | 29 ft | 7 kts | 253° |
| 2026-05-05 09:14 | 31.16098 | 121.78616 | 28 ft | 6 kts | 200° |
| 2026-05-05 09:14 | 31.16015 | 121.78638 | 28 ft | 27 kts | 163° |
| 2026-05-05 09:14 | 31.15634 | 121.78783 | 28 ft | 86 kts | 162° |
| 2026-05-05 09:15 | 31.14901 | 121.79060 | 31 ft | 138 kts | 161° |
| 2026-05-05 09:15 | 31.13835 | 121.79460 | 52 ft | 178 kts | 145° |
| 2026-05-05 09:15 | 31.12742 | 121.79986 | 796 ft | 159 kts | 153° |
| 2026-05-05 09:15 | 31.11641 | 121.80419 | 1152 ft | 176 kts | 166° |
| 2026-05-05 09:16 | 31.10394 | 121.80785 | 1621 ft | 191 kts | 168° |
| 2026-05-05 09:16 | 31.09102 | 121.81169 | 2016 ft | 199 kts | 167° |
| 2026-05-05 09:16 | 31.07719 | 121.81608 | 2233 ft | 214 kts | 166° |
| 2026-05-05 09:16 | 31.06221 | 121.82092 | 2434 ft | 232 kts | 166° |
| 2026-05-05 09:17 | 31.04626 | 121.82620 | 2727 ft | 244 kts | 166° |
| 2026-05-05 09:17 | 31.02966 | 121.83151 | 3202 ft | 249 kts | 168° |
| 2026-05-05 09:17 | 31.01221 | 121.83237 | 3611 ft | 255 kts | 191° |
| 2026-05-05 09:17 | 30.99613 | 121.82381 | 4083 ft | 259 kts | 219° |
| 2026-05-05 09:18 | 30.98519 | 121.80708 | 4566 ft | 264 kts | 245° |
| 2026-05-05 09:18 | 30.97903 | 121.78680 | 5058 ft | 268 kts | 251° |
| 2026-05-05 09:18 | 30.97365 | 121.76593 | 5556 ft | 270 kts | 252° |
| 2026-05-05 09:18 | 30.96814 | 121.74492 | 5845 ft | 272 kts | 252° |
| 2026-05-05 09:19 | 30.96335 | 121.72352 | 5900 ft | 274 kts | 261° |
| 2026-05-05 09:19 | 30.96421 | 121.70144 | 5982 ft | 275 kts | 280° |
| 2026-05-05 09:19 | 30.96826 | 121.67957 | 6318 ft | 278 kts | 282° |
| 2026-05-05 09:19 | 30.97254 | 121.65761 | 6851 ft | 278 kts | 282° |
| 2026-05-05 09:20 | 30.97672 | 121.63562 | 7384 ft | 278 kts | 282° |
| 2026-05-05 09:20 | 30.98085 | 121.61363 | 7913 ft | 279 kts | 282° |
| 2026-05-05 09:20 | 30.98497 | 121.59155 | 8435 ft | 280 kts | 281° |
| 2026-05-05 09:20 | 30.98909 | 121.56930 | 8983 ft | 281 kts | 281° |
| 2026-05-05 09:21 | 30.99320 | 121.54696 | 9517 ft | 282 kts | 281° |
| 2026-05-05 09:21 | 30.99732 | 121.52453 | 10042 ft | 283 kts | 282° |
| 2026-05-05 09:21 | 31.00152 | 121.50174 | 10327 ft | 294 kts | 282° |
| 2026-05-05 09:21 | 31.00589 | 121.47794 | 10524 ft | 306 kts | 282° |
| 2026-05-05 09:22 | 31.01048 | 121.45322 | 10732 ft | 318 kts | 282° |
| 2026-05-05 09:22 | 31.01520 | 121.42756 | 10931 ft | 329 kts | 282° |
| 2026-05-05 09:22 | 31.02006 | 121.40106 | 11135 ft | 340 kts | 282° |
| 2026-05-05 09:22 | 31.02509 | 121.37364 | 11342 ft | 351 kts | 282° |
| 2026-05-05 09:23 | 31.03026 | 121.34548 | 11534 ft | 360 kts | 282° |
| 2026-05-05 09:23 | 31.03466 | 121.32146 | 11805 ft | 364 kts | 282° |
| 2026-05-05 09:23 | 31.03997 | 121.29245 | 12234 ft | 366 kts | 282° |
| 2026-05-05 09:23 | 31.04529 | 121.26333 | 12660 ft | 368 kts | 282° |
| 2026-05-05 09:24 | 31.05064 | 121.23404 | 13037 ft | 371 kts | 282° |
| 2026-05-05 09:24 | 31.05603 | 121.20444 | 13433 ft | 374 kts | 282° |
| 2026-05-05 09:24 | 31.06224 | 121.17492 | 13807 ft | 376 kts | 289° |
| 2026-05-05 09:24 | 31.07476 | 121.14820 | 14142 ft | 379 kts | 309° |
| 2026-05-05 09:25 | 31.09492 | 121.12829 | 14461 ft | 384 kts | 329° |
| 2026-05-05 09:25 | 31.12022 | 121.11789 | 14783 ft | 391 kts | 349° |
| 2026-05-05 09:25 | 31.14751 | 121.11597 | 15142 ft | 395 kts | 359° |
| 2026-05-05 09:25 | 31.17511 | 121.11661 | 15468 ft | 398 kts | 358° |
| 2026-05-05 09:26 | 31.20290 | 121.11662 | 15823 ft | 400 kts | 357° |
| 2026-05-05 09:26 | 31.23076 | 121.11592 | 16179 ft | 402 kts | 356° |
| 2026-05-05 09:26 | 31.25870 | 121.11481 | 16508 ft | 404 kts | 355° |
| 2026-05-05 09:26 | 31.28655 | 121.11349 | 16843 ft | 406 kts | 355° |
| 2026-05-05 09:27 | 31.31485 | 121.11200 | 17191 ft | 408 kts | 355° |
| 2026-05-05 09:27 | 31.34330 | 121.11054 | 17557 ft | 410 kts | 356° |
| 2026-05-05 09:27 | 31.37194 | 121.11119 | 17893 ft | 414 kts | 0° |
| 2026-05-05 09:27 | 31.40082 | 121.11309 | 18210 ft | 417 kts | 1° |
| 2026-05-05 09:28 | 31.42979 | 121.11470 | 18497 ft | 418 kts | 357° |
| 2026-05-05 09:28 | 31.45850 | 121.11047 | 18775 ft | 414 kts | 341° |
| 2026-05-05 09:28 | 31.48531 | 121.09855 | 19096 ft | 413 kts | 334° |
| 2026-05-05 09:28 | 31.50270 | 121.08935 | 19312 ft | 414 kts | 333° |
| 2026-05-05 09:29 | 31.52889 | 121.07524 | 19601 ft | 416 kts | 333° |
| 2026-05-05 09:29 | 31.55522 | 121.06109 | 19909 ft | 417 kts | 333° |
| 2026-05-05 09:29 | 31.58174 | 121.04690 | 20226 ft | 419 kts | 333° |
| 2026-05-05 09:29 | 31.60827 | 121.03273 | 20537 ft | 421 kts | 333° |
| 2026-05-05 09:30 | 31.63502 | 121.01847 | 20853 ft | 422 kts | 333° |
| 2026-05-05 09:30 | 31.66174 | 121.00422 | 21156 ft | 424 kts | 333° |
| 2026-05-05 09:30 | 31.68870 | 120.98984 | 21449 ft | 426 kts | 334° |
| 2026-05-05 09:30 | 31.71578 | 120.97539 | 21777 ft | 428 kts | 334° |
| 2026-05-05 09:31 | 31.74291 | 120.96091 | 22097 ft | 429 kts | 334° |
| 2026-05-05 09:31 | 31.77014 | 120.94637 | 22401 ft | 431 kts | 334° |
| 2026-05-05 09:31 | 31.79755 | 120.93172 | 22688 ft | 433 kts | 334° |
| 2026-05-05 09:31 | 31.82504 | 120.91703 | 23005 ft | 435 kts | 334° |
| 2026-05-05 09:32 | 31.85269 | 120.90222 | 23312 ft | 437 kts | 334° |
| 2026-05-05 09:32 | 31.88041 | 120.88738 | 23591 ft | 439 kts | 334° |
| 2026-05-05 09:32 | 31.90831 | 120.87244 | 23843 ft | 441 kts | 334° |
| 2026-05-05 09:32 | 31.93624 | 120.85747 | 24110 ft | 442 kts | 334° |
| 2026-05-05 09:33 | 31.96430 | 120.84245 | 24381 ft | 444 kts | 334° |
| 2026-05-05 09:33 | 31.99251 | 120.82733 | 24636 ft | 445 kts | 333° |
| 2026-05-05 09:33 | 32.02037 | 120.81232 | 24895 ft | 447 kts | 333° |
| 2026-05-05 09:33 | 32.04868 | 120.79707 | 25162 ft | 448 kts | 333° |
| 2026-05-05 09:34 | 32.07693 | 120.78136 | 25415 ft | 449 kts | 330° |
| 2026-05-05 09:34 | 32.10349 | 120.76213 | 25664 ft | 449 kts | 322° |
| 2026-05-05 09:34 | 32.12695 | 120.73803 | 25925 ft | 448 kts | 312° |
| 2026-05-05 09:34 | 32.14661 | 120.70952 | 26187 ft | 448 kts | 303° |
| 2026-05-05 09:35 | 32.16187 | 120.67744 | 26435 ft | 449 kts | 293° |
| 2026-05-05 09:35 | 32.17795 | 120.60637 | 26948 ft | 452 kts | 278° |
| 2026-05-05 09:35 | 32.18169 | 120.56951 | 27184 ft | 454 kts | 276° |
| 2026-05-05 09:36 | 32.18472 | 120.53236 | 27422 ft | 456 kts | 276° |
| 2026-05-05 09:36 | 32.18748 | 120.49506 | 27677 ft | 457 kts | 275° |
| 2026-05-05 09:36 | 32.19024 | 120.45754 | 27911 ft | 459 kts | 276° |
| 2026-05-05 09:36 | 32.19308 | 120.41990 | 28149 ft | 461 kts | 276° |
| 2026-05-05 09:37 | 32.19603 | 120.38216 | 28375 ft | 463 kts | 276° |
| 2026-05-05 09:37 | 32.19905 | 120.34432 | 28592 ft | 464 kts | 276° |
| 2026-05-05 09:37 | 32.20214 | 120.30628 | 28816 ft | 466 kts | 276° |
| 2026-05-05 09:37 | 32.20525 | 120.26818 | 29028 ft | 468 kts | 277° |
| 2026-05-05 09:38 | 32.20843 | 120.22984 | 29224 ft | 469 kts | 277° |
| 2026-05-05 09:38 | 32.21158 | 120.19155 | 29420 ft | 471 kts | 277° |
| 2026-05-05 09:38 | 32.21474 | 120.15294 | 29629 ft | 472 kts | 277° |
| 2026-05-05 09:38 | 32.21788 | 120.11423 | 29798 ft | 474 kts | 277° |
| 2026-05-05 09:39 | 32.22101 | 120.07543 | 29980 ft | 476 kts | 277° |
| 2026-05-05 09:39 | 32.22413 | 120.03660 | 30131 ft | 477 kts | 277° |
| 2026-05-05 09:39 | 32.22726 | 119.99751 | 30290 ft | 478 kts | 277° |
| 2026-05-05 09:39 | 32.23038 | 119.95833 | 30451 ft | 479 kts | 277° |
| 2026-05-05 09:40 | 32.23349 | 119.91922 | 30682 ft | 478 kts | 277° |
| 2026-05-05 09:40 | 32.23665 | 119.88016 | 30903 ft | 477 kts | 277° |
| 2026-05-05 09:40 | 32.24222 | 119.84163 | 31095 ft | 476 kts | 285° |
| 2026-05-05 09:40 | 32.25213 | 119.80446 | 31282 ft | 475 kts | 293° |
| 2026-05-05 09:41 | 32.26663 | 119.76945 | 31455 ft | 474 kts | 301° |
| 2026-05-05 09:41 | 32.28548 | 119.73766 | 31646 ft | 473 kts | 310° |
| 2026-05-05 09:41 | 32.30828 | 119.70980 | 31824 ft | 473 kts | 319° |
| 2026-05-05 09:41 | 32.33405 | 119.68561 | 32009 ft | 473 kts | 322° |
| 2026-05-05 09:42 | 32.36048 | 119.66267 | 32201 ft | 472 kts | 323° |
| 2026-05-05 09:42 | 32.38732 | 119.64000 | 32372 ft | 472 kts | 324° |
| 2026-05-05 09:42 | 32.41410 | 119.61754 | 32534 ft | 472 kts | 324° |
| 2026-05-05 09:42 | 32.44090 | 119.59500 | 32725 ft | 472 kts | 324° |
| 2026-05-05 09:43 | 32.46757 | 119.57242 | 32895 ft | 471 kts | 323° |
| 2026-05-05 09:43 | 32.49416 | 119.54981 | 33068 ft | 471 kts | 323° |
| 2026-05-05 09:43 | 32.52065 | 119.52701 | 33239 ft | 470 kts | 323° |
| 2026-05-05 09:43 | 32.54705 | 119.50415 | 33406 ft | 470 kts | 323° |
| 2026-05-05 09:44 | 32.57344 | 119.48125 | 33580 ft | 469 kts | 323° |
| 2026-05-05 09:44 | 32.59978 | 119.45838 | 33725 ft | 469 kts | 323° |
| 2026-05-05 09:44 | 32.62580 | 119.43579 | 33879 ft | 469 kts | 323° |
| 2026-05-05 09:44 | 32.65250 | 119.41262 | 33915 ft | 471 kts | 323° |
| 2026-05-05 09:45 | 32.70571 | 119.36644 | 33914 ft | 475 kts | 323° |
| 2026-05-05 09:45 | 32.75900 | 119.32014 | 33909 ft | 474 kts | 323° |
| 2026-05-05 09:46 | 32.81135 | 119.27460 | 33914 ft | 473 kts | 323° |
| 2026-05-05 09:46 | 32.86408 | 119.22865 | 33912 ft | 472 kts | 323° |
| 2026-05-05 09:47 | 32.91703 | 119.18245 | 33904 ft | 471 kts | 323° |
| 2026-05-05 09:47 | 32.96990 | 119.13643 | 33905 ft | 471 kts | 324° |
| 2026-05-05 09:48 | 33.02297 | 119.09077 | 33903 ft | 470 kts | 324° |
| 2026-05-05 09:48 | 33.07602 | 119.04514 | 33901 ft | 470 kts | 324° |
| 2026-05-05 09:49 | 33.12895 | 118.99947 | 33903 ft | 469 kts | 324° |
| 2026-05-05 09:49 | 33.18175 | 118.95381 | 33898 ft | 469 kts | 324° |
| 2026-05-05 09:50 | 33.23455 | 118.90810 | 33893 ft | 468 kts | 324° |
| 2026-05-05 09:50 | 33.28706 | 118.86214 | 33896 ft | 468 kts | 324° |
| 2026-05-05 09:51 | 33.33975 | 118.81623 | 33891 ft | 468 kts | 324° |
| 2026-05-05 09:51 | 33.39243 | 118.77057 | 33886 ft | 468 kts | 324° |
| 2026-05-05 09:52 | 33.44510 | 118.72490 | 33881 ft | 467 kts | 324° |
| 2026-05-05 09:52 | 33.49768 | 118.67933 | 33882 ft | 467 kts | 325° |
| 2026-05-05 09:53 | 33.55042 | 118.63362 | 33883 ft | 467 kts | 325° |
| 2026-05-05 09:53 | 33.60301 | 118.58794 | 33881 ft | 466 kts | 325° |
| 2026-05-05 09:54 | 33.65549 | 118.54228 | 33878 ft | 466 kts | 325° |
| 2026-05-05 09:54 | 33.70798 | 118.49656 | 33869 ft | 466 kts | 325° |
| 2026-05-05 09:55 | 33.76041 | 118.45082 | 33877 ft | 466 kts | 325° |
| 2026-05-05 09:55 | 33.81284 | 118.40502 | 33865 ft | 465 kts | 325° |
| 2026-05-05 09:56 | 33.86509 | 118.35929 | 33866 ft | 465 kts | 325° |
| 2026-05-05 09:56 | 33.91732 | 118.31352 | 33870 ft | 464 kts | 325° |
| 2026-05-05 09:57 | 33.96954 | 118.26769 | 33871 ft | 464 kts | 325° |
| 2026-05-05 09:57 | 34.02148 | 118.22232 | 33870 ft | 464 kts | 325° |
| 2026-05-05 09:58 | 34.07405 | 118.17660 | 33861 ft | 463 kts | 325° |
| 2026-05-05 09:58 | 34.12603 | 118.13141 | 33855 ft | 463 kts | 325° |
| 2026-05-05 09:59 | 34.17851 | 118.08569 | 33855 ft | 462 kts | 325° |
| 2026-05-05 09:59 | 34.23056 | 118.04025 | 33848 ft | 461 kts | 325° |
| 2026-05-05 10:00 | 34.28494 | 117.99955 | 33858 ft | 459 kts | 336° |
| 2026-05-05 10:00 | 34.34513 | 117.97405 | 33844 ft | 459 kts | 343° |
| 2026-05-05 10:01 | 34.40641 | 117.95212 | 33852 ft | 459 kts | 343° |
| 2026-05-05 10:01 | 34.46724 | 117.93081 | 33854 ft | 458 kts | 343° |
| 2026-05-05 10:02 | 34.52844 | 117.90911 | 33847 ft | 458 kts | 343° |
| 2026-05-05 10:02 | 34.58949 | 117.88725 | 33845 ft | 457 kts | 343° |
| 2026-05-05 10:03 | 34.65045 | 117.86535 | 33843 ft | 457 kts | 343° |
| 2026-05-05 10:03 | 34.71142 | 117.84342 | 33839 ft | 456 kts | 343° |
| 2026-05-05 10:04 | 34.77231 | 117.82151 | 33846 ft | 456 kts | 343° |
| 2026-05-05 10:04 | 34.83305 | 117.79963 | 33843 ft | 455 kts | 343° |
| 2026-05-05 10:05 | 34.89372 | 117.77761 | 33840 ft | 455 kts | 343° |
| 2026-05-05 10:05 | 34.95423 | 117.75532 | 33841 ft | 454 kts | 343° |
| 2026-05-05 10:06 | 35.01463 | 117.73309 | 33838 ft | 453 kts | 343° |
| 2026-05-05 10:06 | 35.07503 | 117.71093 | 33843 ft | 453 kts | 343° |
| 2026-05-05 10:07 | 35.13540 | 117.68890 | 33842 ft | 452 kts | 343° |
| 2026-05-05 10:07 | 35.19567 | 117.66673 | 33844 ft | 452 kts | 343° |
| 2026-05-05 10:08 | 35.25580 | 117.64457 | 33837 ft | 452 kts | 343° |
| 2026-05-05 10:08 | 35.31599 | 117.62240 | 33833 ft | 451 kts | 343° |
| 2026-05-05 10:09 | 35.37611 | 117.60023 | 33835 ft | 451 kts | 343° |
| 2026-05-05 10:09 | 35.43623 | 117.57801 | 33835 ft | 451 kts | 343° |
| 2026-05-05 10:10 | 35.49614 | 117.55585 | 33823 ft | 450 kts | 343° |
| 2026-05-05 10:10 | 35.55614 | 117.53362 | 33827 ft | 449 kts | 343° |
| 2026-05-05 10:11 | 35.61603 | 117.51139 | 33827 ft | 449 kts | 343° |
| 2026-05-05 10:11 | 35.67582 | 117.48917 | 33823 ft | 449 kts | 343° |
| 2026-05-05 10:12 | 35.73558 | 117.46692 | 33820 ft | 449 kts | 343° |
| 2026-05-05 10:12 | 35.79527 | 117.44466 | 33819 ft | 448 kts | 343° |
| 2026-05-05 10:13 | 35.85494 | 117.42237 | 33816 ft | 448 kts | 343° |
| 2026-05-05 10:13 | 35.91414 | 117.40023 | 33815 ft | 447 kts | 343° |
| 2026-05-05 10:14 | 35.97365 | 117.37794 | 33815 ft | 447 kts | 343° |
| 2026-05-05 10:14 | 36.03311 | 117.35574 | 33807 ft | 446 kts | 343° |
| 2026-05-05 10:15 | 36.09258 | 117.33382 | 33818 ft | 446 kts | 343° |
| 2026-05-05 10:15 | 36.14236 | 117.31544 | 33805 ft | 445 kts | 343° |
| 2026-05-05 10:16 | 36.20168 | 117.29348 | 33794 ft | 445 kts | 343° |
| 2026-05-05 10:16 | 36.26058 | 117.27163 | 33794 ft | 445 kts | 343° |
| 2026-05-05 10:17 | 36.31979 | 117.24963 | 33810 ft | 444 kts | 343° |
| 2026-05-05 10:17 | 36.37901 | 117.22759 | 33802 ft | 444 kts | 343° |
| 2026-05-05 10:18 | 36.43735 | 117.20269 | 33786 ft | 443 kts | 339° |
| 2026-05-05 10:18 | 36.49444 | 117.17360 | 33780 ft | 444 kts | 338° |
| 2026-05-05 10:19 | 36.55138 | 117.14389 | 33790 ft | 444 kts | 338° |
| 2026-05-05 10:19 | 36.60831 | 117.11412 | 33784 ft | 443 kts | 338° |
| 2026-05-05 10:20 | 36.66512 | 117.08446 | 33778 ft | 443 kts | 337° |
| 2026-05-05 10:20 | 36.72197 | 117.05476 | 33770 ft | 443 kts | 337° |
| 2026-05-05 10:21 | 36.77885 | 117.02500 | 33767 ft | 443 kts | 337° |
| 2026-05-05 10:21 | 36.83561 | 116.99526 | 33762 ft | 443 kts | 337° |
| 2026-05-05 10:22 | 36.89248 | 116.96540 | 33759 ft | 443 kts | 337° |
| 2026-05-05 10:22 | 36.94933 | 116.93550 | 33754 ft | 443 kts | 337° |
| 2026-05-05 10:23 | 37.00620 | 116.90555 | 33752 ft | 444 kts | 336° |
| 2026-05-05 10:23 | 37.06308 | 116.87554 | 33747 ft | 444 kts | 336° |
| 2026-05-05 10:24 | 37.12004 | 116.84545 | 33749 ft | 444 kts | 336° |
| 2026-05-05 10:24 | 37.17656 | 116.81553 | 33727 ft | 444 kts | 336° |
| 2026-05-05 10:25 | 37.23468 | 116.78783 | 33727 ft | 445 kts | 341° |
| 2026-05-05 10:25 | 37.29345 | 116.76503 | 33740 ft | 445 kts | 342° |
| 2026-05-05 10:26 | 37.35278 | 116.74271 | 33736 ft | 445 kts | 342° |
| 2026-05-05 10:26 | 37.41219 | 116.72037 | 33731 ft | 446 kts | 341° |
| 2026-05-05 10:27 | 37.47154 | 116.69793 | 33729 ft | 446 kts | 341° |
| 2026-05-05 10:27 | 37.53095 | 116.67538 | 33714 ft | 446 kts | 341° |
| 2026-05-05 10:28 | 37.59042 | 116.65276 | 33719 ft | 446 kts | 341° |
| 2026-05-05 10:28 | 37.64985 | 116.63011 | 33722 ft | 446 kts | 341° |
| 2026-05-05 10:29 | 37.70937 | 116.60740 | 33717 ft | 446 kts | 341° |
| 2026-05-05 10:29 | 37.76878 | 116.58470 | 33712 ft | 447 kts | 341° |
| 2026-05-05 10:30 | 37.82829 | 116.56192 | 33715 ft | 447 kts | 341° |
| 2026-05-05 10:30 | 37.88781 | 116.53910 | 33709 ft | 447 kts | 341° |
| 2026-05-05 10:31 | 37.94725 | 116.51575 | 33708 ft | 446 kts | 338° |
| 2026-05-05 10:31 | 38.00208 | 116.47987 | 33706 ft | 443 kts | 325° |
| 2026-05-05 10:32 | 38.05263 | 116.43500 | 33695 ft | 444 kts | 323° |
| 2026-05-05 10:32 | 38.10256 | 116.38886 | 33699 ft | 444 kts | 323° |
| 2026-05-05 10:33 | 38.15245 | 116.34280 | 33688 ft | 444 kts | 323° |
| 2026-05-05 10:33 | 38.20379 | 116.29915 | 33692 ft | 445 kts | 330° |
| 2026-05-05 10:34 | 38.26177 | 116.27248 | 33691 ft | 450 kts | 346° |
| 2026-05-05 10:34 | 38.32472 | 116.26922 | 33679 ft | 460 kts | 2° |
| 2026-05-05 10:35 | 38.38780 | 116.28701 | 33679 ft | 467 kts | 10° |
| 2026-05-05 10:35 | 38.45045 | 116.30902 | 33675 ft | 468 kts | 11° |
| 2026-05-05 10:36 | 38.51318 | 116.33129 | 33681 ft | 468 kts | 10° |
| 2026-05-05 10:36 | 38.57607 | 116.35324 | 33674 ft | 468 kts | 10° |
| 2026-05-05 10:37 | 38.63896 | 116.37501 | 33673 ft | 469 kts | 10° |
| 2026-05-05 10:37 | 38.70193 | 116.39703 | 33670 ft | 469 kts | 10° |
| 2026-05-05 10:38 | 38.76492 | 116.41920 | 33669 ft | 469 kts | 10° |
| 2026-05-05 10:38 | 38.82788 | 116.44140 | 33666 ft | 470 kts | 10° |
| 2026-05-05 10:39 | 38.89099 | 116.46369 | 33661 ft | 470 kts | 10° |
| 2026-05-05 10:39 | 38.95405 | 116.48600 | 33661 ft | 471 kts | 10° |
| 2026-05-05 10:40 | 39.01723 | 116.50839 | 33663 ft | 471 kts | 10° |
| 2026-05-05 10:40 | 39.08047 | 116.53085 | 33660 ft | 472 kts | 10° |
| 2026-05-05 10:41 | 39.14377 | 116.55337 | 33662 ft | 472 kts | 10° |
| 2026-05-05 10:41 | 39.20715 | 116.57603 | 33658 ft | 474 kts | 10° |
| 2026-05-05 10:42 | 39.30098 | 116.61896 | 33647 ft | 478 kts | 15° |
| 2026-05-05 10:43 | 39.36326 | 116.64937 | 33639 ft | 478 kts | 14° |
| 2026-05-05 10:43 | 39.42530 | 116.67881 | 33649 ft | 479 kts | 14° |
| 2026-05-05 10:44 | 39.48793 | 116.70810 | 33639 ft | 479 kts | 14° |
| 2026-05-05 10:44 | 39.55063 | 116.73738 | 33646 ft | 479 kts | 14° |
| 2026-05-05 10:45 | 39.61340 | 116.76680 | 33643 ft | 479 kts | 14° |
| 2026-05-05 10:45 | 39.67605 | 116.79624 | 33646 ft | 479 kts | 14° |
| 2026-05-05 10:46 | 39.73882 | 116.82580 | 33647 ft | 479 kts | 14° |
| 2026-05-05 10:46 | 39.80276 | 116.84537 | 33643 ft | 466 kts | 359° |
| 2026-05-05 10:47 | 39.86658 | 116.84148 | 33640 ft | 457 kts | 348° |
| 2026-05-05 10:47 | 39.92951 | 116.82945 | 33644 ft | 457 kts | 346° |
| 2026-05-05 10:48 | 39.99229 | 116.81644 | 33639 ft | 457 kts | 346° |
| 2026-05-05 10:48 | 40.05515 | 116.80359 | 33641 ft | 458 kts | 346° |
| 2026-05-05 10:49 | 40.11811 | 116.79093 | 33643 ft | 458 kts | 346° |
| 2026-05-05 10:49 | 40.18115 | 116.77831 | 33644 ft | 458 kts | 346° |
| 2026-05-05 10:50 | 40.24422 | 116.76565 | 33642 ft | 459 kts | 346° |
| 2026-05-05 10:50 | 40.30736 | 116.75293 | 33643 ft | 458 kts | 346° |
| 2026-05-05 10:51 | 40.36876 | 116.73277 | 33645 ft | 454 kts | 339° |
| 2026-05-05 10:51 | 40.42910 | 116.70879 | 33652 ft | 454 kts | 338° |
| 2026-05-05 10:52 | 40.48939 | 116.68423 | 33650 ft | 454 kts | 338° |
| 2026-05-05 10:52 | 40.54978 | 116.65961 | 33654 ft | 454 kts | 338° |
| 2026-05-05 10:53 | 40.61001 | 116.63512 | 33659 ft | 454 kts | 338° |
| 2026-05-05 10:53 | 40.67048 | 116.61053 | 33660 ft | 454 kts | 338° |
| 2026-05-05 10:54 | 40.73078 | 116.58596 | 33662 ft | 454 kts | 338° |
| 2026-05-05 10:54 | 40.79198 | 116.56655 | 33667 ft | 461 kts | 348° |
| 2026-05-05 10:55 | 40.85654 | 116.55883 | 33660 ft | 464 kts | 350° |
| 2026-05-05 10:55 | 40.92057 | 116.55304 | 33661 ft | 464 kts | 350° |
| 2026-05-05 10:56 | 40.98505 | 116.54735 | 33659 ft | 465 kts | 350° |
| 2026-05-05 10:56 | 41.04958 | 116.54143 | 33662 ft | 465 kts | 350° |
| 2026-05-05 10:57 | 41.11419 | 116.53541 | 33668 ft | 465 kts | 350° |
| 2026-05-05 10:57 | 41.17874 | 116.52936 | 33659 ft | 465 kts | 350° |
| 2026-05-05 10:58 | 41.24173 | 116.51481 | 33660 ft | 454 kts | 336° |
| 2026-05-05 10:58 | 41.29821 | 116.47972 | 33657 ft | 446 kts | 326° |
| 2026-05-05 10:59 | 41.35179 | 116.43798 | 33657 ft | 447 kts | 325° |
| 2026-05-05 10:59 | 41.40471 | 116.39556 | 33653 ft | 447 kts | 324° |
| 2026-05-05 11:00 | 41.45804 | 116.35295 | 33648 ft | 447 kts | 325° |
| 2026-05-05 11:00 | 41.51142 | 116.31048 | 33643 ft | 447 kts | 325° |
| 2026-05-05 11:01 | 41.56484 | 116.26800 | 33640 ft | 447 kts | 325° |
| 2026-05-05 11:01 | 41.61822 | 116.22547 | 33635 ft | 446 kts | 324° |
| 2026-05-05 11:02 | 41.67151 | 116.18290 | 33624 ft | 446 kts | 324° |
| 2026-05-05 11:02 | 41.72475 | 116.14029 | 33607 ft | 446 kts | 324° |
| 2026-05-05 11:03 | 41.77801 | 116.09758 | 33606 ft | 446 kts | 324° |
| 2026-05-05 11:03 | 41.82217 | 116.06210 | 33589 ft | 445 kts | 324° |
| 2026-05-05 11:04 | 41.87521 | 116.01942 | 33575 ft | 444 kts | 324° |
| 2026-05-05 11:04 | 41.92729 | 115.97514 | 33570 ft | 440 kts | 318° |
| 2026-05-05 11:05 | 41.97000 | 115.91786 | 33557 ft | 431 kts | 304° |
| 2026-05-05 11:05 | 42.00111 | 115.84949 | 33539 ft | 430 kts | 297° |
| 2026-05-05 11:06 | 40.78427 | 11.85719 | 29882 ft | 456 kts | 340° |